sensor_id;sensor_type;location;lat;lon;timestamp;pressure;altitude;pressure_sealevel;temperature;humidity
20077;BME280;12348;42.710;23.378;2023-02-13T00:00:14;96904.03;;;-1.42;100.00
20077;BME280;12348;42.710;23.378;2023-02-13T00:02:42;96909.00;;;-1.48;100.00
20077;BME280;12348;42.710;23.378;2023-02-13T00:05:08;96905.22;;;-1.53;100.00
20077;BME280;12348;42.710;23.378;2023-02-13T00:07:35;96904.06;;;-1.51;100.00
20077;BME280;12348;42.710;23.378;2023-02-13T00:10:04;96906.88;;;-1.52;100.00
20077;BME280;12348;42.710;23.378;2023-02-13T00:12:31;96902.59;;;-1.61;100.00
20077;BME280;12348;42.710;23.378;2023-02-13T00:14:58;96906.22;;;-1.54;100.00
20077;BME280;12348;42.710;23.378;2023-02-13T00:17:25;96911.81;;;-1.41;100.00
20077;BME280;12348;42.710;23.378;2023-02-13T00:19:52;96915.09;;;-1.39;100.00
20077;BME280;12348;42.710;23.378;2023-02-13T00:22:19;96916.91;;;-1.39;100.00
20077;BME280;12348;42.710;23.378;2023-02-13T00:24:46;96909.16;;;-1.41;100.00
20077;BME280;12348;42.710;23.378;2023-02-13T00:27:14;96911.94;;;-1.34;100.00
20077;BME280;12348;42.710;23.378;2023-02-13T00:29:41;96914.78;;;-1.44;100.00
20077;BME280;12348;42.710;23.378;2023-02-13T00:32:08;96924.84;;;-1.48;100.00
20077;BME280;12348;42.710;23.378;2023-02-13T00:34:34;96916.13;;;-1.56;100.00
20077;BME280;12348;42.710;23.378;2023-02-13T00:37:01;96914.47;;;-1.57;100.00
20077;BME280;12348;42.710;23.378;2023-02-13T00:39:28;96920.75;;;-1.58;100.00
20077;BME280;12348;42.710;23.378;2023-02-13T00:41:55;96917.44;;;-1.52;100.00
20077;BME280;12348;42.710;23.378;2023-02-13T00:44:23;96916.13;;;-1.64;100.00
20077;BME280;12348;42.710;23.378;2023-02-13T00:46:50;96919.13;;;-1.67;100.00
20077;BME280;12348;42.710;23.378;2023-02-13T00:49:17;96921.78;;;-1.67;100.00
20077;BME280;12348;42.710;23.378;2023-02-13T00:51:44;96923.41;;;-1.58;100.00
20077;BME280;12348;42.710;23.378;2023-02-13T00:54:10;96923.78;;;-1.86;100.00
20077;BME280;12348;42.710;23.378;2023-02-13T00:56:37;96923.66;;;-2.09;100.00
20077;BME280;12348;42.710;23.378;2023-02-13T00:59:04;96931.38;;;-2.32;100.00
20077;BME280;12348;42.710;23.378;2023-02-13T01:04:02;96934.16;;;-2.58;100.00
20077;BME280;12348;42.710;23.378;2023-02-13T01:06:29;96935.81;;;-2.65;100.00
20077;BME280;12348;42.710;23.378;2023-02-13T01:08:55;96935.75;;;-2.73;100.00
20077;BME280;12348;42.710;23.378;2023-02-13T01:11:22;96930.16;;;-2.78;100.00
20077;BME280;12348;42.710;23.378;2023-02-13T01:13:49;96929.34;;;-2.79;100.00
20077;BME280;12348;42.710;23.378;2023-02-13T01:16:16;96934.44;;;-2.85;100.00
20077;BME280;12348;42.710;23.378;2023-02-13T01:18:42;96933.72;;;-2.96;100.00
20077;BME280;12348;42.710;23.378;2023-02-13T01:21:15;96939.50;;;-2.92;100.00
20077;BME280;12348;42.710;23.378;2023-02-13T01:23:42;96940.00;;;-2.97;100.00
20077;BME280;12348;42.710;23.378;2023-02-13T01:26:13;96942.13;;;-2.92;100.00
20077;BME280;12348;42.710;23.378;2023-02-13T01:28:41;96944.78;;;-2.92;100.00
20077;BME280;12348;42.710;23.378;2023-02-13T01:31:08;96933.91;;;-2.89;100.00
20077;BME280;12348;42.710;23.378;2023-02-13T01:33:35;96937.88;;;-2.85;100.00
20077;BME280;12348;42.710;23.378;2023-02-13T01:36:05;96943.00;;;-2.83;100.00
20077;BME280;12348;42.710;23.378;2023-02-13T01:38:35;96950.41;;;-2.87;100.00
20077;BME280;12348;42.710;23.378;2023-02-13T01:41:02;96937.38;;;-2.88;100.00
20077;BME280;12348;42.710;23.378;2023-02-13T01:43:45;96946.97;;;-2.87;100.00
20077;BME280;12348;42.710;23.378;2023-02-13T01:46:15;96946.47;;;-2.75;100.00
20077;BME280;12348;42.710;23.378;2023-02-13T01:48:44;96950.44;;;-2.71;100.00
20077;BME280;12348;42.710;23.378;2023-02-13T01:51:15;96954.09;;;-2.63;100.00
20077;BME280;12348;42.710;23.378;2023-02-13T01:53:50;96948.34;;;-2.51;100.00
20077;BME280;12348;42.710;23.378;2023-02-13T01:56:24;96943.28;;;-2.28;100.00
20077;BME280;12348;42.710;23.378;2023-02-13T01:58:54;96949.69;;;-2.30;100.00
20077;BME280;12348;42.710;23.378;2023-02-13T02:01:22;96947.69;;;-2.36;100.00
20077;BME280;12348;42.710;23.378;2023-02-13T02:03:53;96949.84;;;-2.40;100.00
20077;BME280;12348;42.710;23.378;2023-02-13T02:06:24;96939.28;;;-2.40;100.00
20077;BME280;12348;42.710;23.378;2023-02-13T02:09:00;96943.75;;;-2.40;100.00
20077;BME280;12348;42.710;23.378;2023-02-13T02:11:35;96942.09;;;-2.33;100.00
20077;BME280;12348;42.710;23.378;2023-02-13T02:14:03;96939.63;;;-2.27;100.00
20077;BME280;12348;42.710;23.378;2023-02-13T02:16:30;96939.81;;;-2.20;100.00
20077;BME280;12348;42.710;23.378;2023-02-13T02:18:58;96937.47;;;-2.07;100.00
20077;BME280;12348;42.710;23.378;2023-02-13T02:21:52;96932.72;;;-2.11;100.00
20077;BME280;12348;42.710;23.378;2023-02-13T02:24:49;96946.22;;;-2.23;100.00
20077;BME280;12348;42.710;23.378;2023-02-13T02:31:18;96941.09;;;-2.49;100.00
20077;BME280;12348;42.710;23.378;2023-02-13T02:34:05;96939.78;;;-2.45;100.00
20077;BME280;12348;42.710;23.378;2023-02-13T02:36:46;96945.22;;;-2.46;100.00
20077;BME280;12348;42.710;23.378;2023-02-13T02:39:24;96957.41;;;-2.45;100.00
20077;BME280;12348;42.710;23.378;2023-02-13T02:42:02;96957.06;;;-2.58;100.00
20077;BME280;12348;42.710;23.378;2023-02-13T02:44:39;96960.31;;;-2.73;100.00
20077;BME280;12348;42.710;23.378;2023-02-13T02:47:16;96976.09;;;-2.81;100.00
20077;BME280;12348;42.710;23.378;2023-02-13T02:50:26;96968.78;;;-3.03;100.00
20077;BME280;12348;42.710;23.378;2023-02-13T02:53:05;96978.00;;;-3.07;100.00
20077;BME280;12348;42.710;23.378;2023-02-13T02:55:37;96985.88;;;-3.15;100.00
20077;BME280;12348;42.710;23.378;2023-02-13T02:58:11;96979.88;;;-3.26;100.00
20077;BME280;12348;42.710;23.378;2023-02-13T03:00:59;96985.44;;;-3.29;100.00
20077;BME280;12348;42.710;23.378;2023-02-13T03:03:45;96977.09;;;-3.24;100.00
20077;BME280;12348;42.710;23.378;2023-02-13T03:06:35;96977.56;;;-3.29;100.00
20077;BME280;12348;42.710;23.378;2023-02-13T03:09:05;96977.03;;;-3.32;100.00
20077;BME280;12348;42.710;23.378;2023-02-13T03:11:54;96985.09;;;-3.34;100.00
20077;BME280;12348;42.710;23.378;2023-02-13T03:14:39;96969.78;;;-3.38;100.00
20077;BME280;12348;42.710;23.378;2023-02-13T03:17:10;96972.25;;;-3.37;100.00
20077;BME280;12348;42.710;23.378;2023-02-13T03:20:12;96976.56;;;-3.36;100.00
20077;BME280;12348;42.710;23.378;2023-02-13T03:23:06;96980.31;;;-3.38;100.00
20077;BME280;12348;42.710;23.378;2023-02-13T03:25:50;96976.38;;;-3.34;100.00
20077;BME280;12348;42.710;23.378;2023-02-13T03:28:27;96985.63;;;-3.30;100.00
20077;BME280;12348;42.710;23.378;2023-02-13T03:31:31;96985.34;;;-3.19;100.00
20077;BME280;12348;42.710;23.378;2023-02-13T03:34:03;96980.59;;;-3.15;100.00
20077;BME280;12348;42.710;23.378;2023-02-13T03:36:40;96988.00;;;-3.11;100.00
20077;BME280;12348;42.710;23.378;2023-02-13T03:39:34;96975.66;;;-3.10;100.00
20077;BME280;12348;42.710;23.378;2023-02-13T03:42:06;96982.91;;;-3.12;100.00
20077;BME280;12348;42.710;23.378;2023-02-13T03:44:38;96980.56;;;-3.24;100.00
20077;BME280;12348;42.710;23.378;2023-02-13T03:47:08;96983.50;;;-3.27;100.00
20077;BME280;12348;42.710;23.378;2023-02-13T03:49:39;96984.31;;;-3.26;100.00
20077;BME280;12348;42.710;23.378;2023-02-13T03:52:30;96984.75;;;-3.39;100.00
20077;BME280;12348;42.710;23.378;2023-02-13T03:55:03;96983.47;;;-3.35;100.00
20077;BME280;12348;42.710;23.378;2023-02-13T03:57:52;96986.44;;;-3.30;100.00
20077;BME280;12348;42.710;23.378;2023-02-13T04:00:40;96984.06;;;-3.41;100.00
20077;BME280;12348;42.710;23.378;2023-02-13T04:03:12;96981.88;;;-3.54;100.00
20077;BME280;12348;42.710;23.378;2023-02-13T04:05:43;96982.44;;;-3.68;100.00
20077;BME280;12348;42.710;23.378;2023-02-13T04:08:13;96976.41;;;-3.60;100.00
20077;BME280;12348;42.710;23.378;2023-02-13T04:10:49;96979.50;;;-3.65;100.00
20077;BME280;12348;42.710;23.378;2023-02-13T04:13:23;96979.34;;;-3.63;100.00
20077;BME280;12348;42.710;23.378;2023-02-13T04:15:55;96986.25;;;-3.62;100.00
20077;BME280;12348;42.710;23.378;2023-02-13T04:18:26;96990.38;;;-3.60;100.00
20077;BME280;12348;42.710;23.378;2023-02-13T04:20:54;96993.69;;;-3.58;100.00
20077;BME280;12348;42.710;23.378;2023-02-13T04:23:20;96994.47;;;-3.66;100.00
20077;BME280;12348;42.710;23.378;2023-02-13T04:25:50;96995.00;;;-3.62;100.00
20077;BME280;12348;42.710;23.378;2023-02-13T04:28:17;96991.84;;;-3.66;100.00
20077;BME280;12348;42.710;23.378;2023-02-13T04:30:44;96990.69;;;-3.63;100.00
20077;BME280;12348;42.710;23.378;2023-02-13T04:33:11;96988.88;;;-3.62;100.00
20077;BME280;12348;42.710;23.378;2023-02-13T04:35:39;96987.53;;;-3.67;100.00
20077;BME280;12348;42.710;23.378;2023-02-13T04:38:06;96990.13;;;-3.75;100.00
20077;BME280;12348;42.710;23.378;2023-02-13T04:40:33;96974.75;;;-3.87;100.00
20077;BME280;12348;42.710;23.378;2023-02-13T04:43:01;96985.09;;;-3.86;100.00
20077;BME280;12348;42.710;23.378;2023-02-13T04:45:28;96986.75;;;-3.85;100.00
20077;BME280;12348;42.710;23.378;2023-02-13T04:47:56;96995.16;;;-3.81;100.00
20077;BME280;12348;42.710;23.378;2023-02-13T04:50:23;96997.19;;;-3.75;100.00
20077;BME280;12348;42.710;23.378;2023-02-13T04:52:52;97000.25;;;-3.62;100.00
20077;BME280;12348;42.710;23.378;2023-02-13T04:55:20;96999.63;;;-3.56;100.00
20077;BME280;12348;42.710;23.378;2023-02-13T04:57:46;97004.53;;;-3.61;100.00
20077;BME280;12348;42.710;23.378;2023-02-13T05:00:15;97001.38;;;-3.64;100.00
20077;BME280;12348;42.710;23.378;2023-02-13T05:02:42;97004.09;;;-3.74;100.00
20077;BME280;12348;42.710;23.378;2023-02-13T05:05:09;97010.44;;;-3.85;100.00
20077;BME280;12348;42.710;23.378;2023-02-13T05:07:35;97013.22;;;-3.86;100.00
20077;BME280;12348;42.710;23.378;2023-02-13T05:10:03;97019.59;;;-3.89;100.00
20077;BME280;12348;42.710;23.378;2023-02-13T05:12:30;97009.53;;;-3.76;100.00
20077;BME280;12348;42.710;23.378;2023-02-13T05:14:57;97017.47;;;-3.68;100.00
20077;BME280;12348;42.710;23.378;2023-02-13T05:17:25;97018.22;;;-3.57;100.00
20077;BME280;12348;42.710;23.378;2023-02-13T05:19:52;97022.72;;;-3.50;100.00
20077;BME280;12348;42.710;23.378;2023-02-13T05:22:19;97025.19;;;-3.48;100.00
20077;BME280;12348;42.710;23.378;2023-02-13T05:25:03;97019.84;;;-3.56;100.00
20077;BME280;12348;42.710;23.378;2023-02-13T05:27:30;97023.53;;;-3.23;100.00
20077;BME280;12348;42.710;23.378;2023-02-13T05:29:57;97027.94;;;-3.32;100.00
20077;BME280;12348;42.710;23.378;2023-02-13T05:32:26;97018.31;;;-3.41;100.00
20077;BME280;12348;42.710;23.378;2023-02-13T05:34:52;97025.84;;;-3.46;100.00
20077;BME280;12348;42.710;23.378;2023-02-13T05:37:19;97031.72;;;-3.52;100.00
20077;BME280;12348;42.710;23.378;2023-02-13T05:39:46;97039.94;;;-3.55;100.00
20077;BME280;12348;42.710;23.378;2023-02-13T05:42:13;97040.09;;;-3.57;100.00
20077;BME280;12348;42.710;23.378;2023-02-13T05:44:39;97041.66;;;-3.46;100.00
20077;BME280;12348;42.710;23.378;2023-02-13T05:47:07;97038.72;;;-3.43;100.00
20077;BME280;12348;42.710;23.378;2023-02-13T05:49:35;97033.19;;;-3.32;100.00
20077;BME280;12348;42.710;23.378;2023-02-13T05:52:02;97039.84;;;-3.20;100.00
20077;BME280;12348;42.710;23.378;2023-02-13T05:54:29;97036.25;;;-3.10;100.00
20077;BME280;12348;42.710;23.378;2023-02-13T05:56:55;97040.97;;;-2.88;100.00
20077;BME280;12348;42.710;23.378;2023-02-13T05:59:22;97039.50;;;-2.40;100.00
20077;BME280;12348;42.710;23.378;2023-02-13T06:01:49;97034.47;;;-2.09;100.00
20077;BME280;12348;42.710;23.378;2023-02-13T06:04:16;97038.25;;;-1.95;100.00
20077;BME280;12348;42.710;23.378;2023-02-13T06:06:44;97041.22;;;-1.98;100.00
20077;BME280;12348;42.710;23.378;2023-02-13T06:09:11;97036.94;;;-1.99;100.00
20077;BME280;12348;42.710;23.378;2023-02-13T06:11:38;97042.22;;;-1.99;100.00
20077;BME280;12348;42.710;23.378;2023-02-13T06:14:04;97041.25;;;-1.90;100.00
20077;BME280;12348;42.710;23.378;2023-02-13T06:16:32;97053.97;;;-1.77;100.00
20077;BME280;12348;42.710;23.378;2023-02-13T06:18:59;97047.03;;;-1.62;100.00
20077;BME280;12348;42.710;23.378;2023-02-13T06:21:26;97048.81;;;-1.46;100.00
20077;BME280;12348;42.710;23.378;2023-02-13T06:23:54;97054.44;;;-1.33;100.00
20077;BME280;12348;42.710;23.378;2023-02-13T06:26:20;97055.41;;;-1.26;100.00
20077;BME280;12348;42.710;23.378;2023-02-13T06:28:48;97052.25;;;-1.13;100.00
20077;BME280;12348;42.710;23.378;2023-02-13T06:31:15;97057.66;;;-0.98;100.00
20077;BME280;12348;42.710;23.378;2023-02-13T06:33:42;97049.38;;;-0.87;100.00
20077;BME280;12348;42.710;23.378;2023-02-13T06:36:10;97058.72;;;-0.68;100.00
20077;BME280;12348;42.710;23.378;2023-02-13T06:38:36;97070.38;;;-0.46;100.00
20077;BME280;12348;42.710;23.378;2023-02-13T06:41:05;97055.25;;;0.02;100.00
20077;BME280;12348;42.710;23.378;2023-02-13T06:43:32;97069.78;;;0.29;100.00
20077;BME280;12348;42.710;23.378;2023-02-13T06:45:59;97071.63;;;0.29;100.00
20077;BME280;12348;42.710;23.378;2023-02-13T06:48:25;97064.91;;;0.41;100.00
20077;BME280;12348;42.710;23.378;2023-02-13T06:50:52;97056.28;;;0.62;100.00
20077;BME280;12348;42.710;23.378;2023-02-13T06:53:19;97055.81;;;1.26;100.00
20077;BME280;12348;42.710;23.378;2023-02-13T06:55:49;97048.78;;;2.91;100.00
20077;BME280;12348;42.710;23.378;2023-02-13T06:58:17;97045.09;;;3.55;100.00
20077;BME280;12348;42.710;23.378;2023-02-13T07:00:44;97047.25;;;3.38;100.00
20077;BME280;12348;42.710;23.378;2023-02-13T07:03:12;97048.34;;;3.50;100.00
20077;BME280;12348;42.710;23.378;2023-02-13T07:05:39;97049.44;;;3.62;100.00
20077;BME280;12348;42.710;23.378;2023-02-13T07:08:07;97049.31;;;4.78;100.00
20077;BME280;12348;42.710;23.378;2023-02-13T07:10:36;97042.03;;;6.73;100.00
20077;BME280;12348;42.710;23.378;2023-02-13T07:13:02;97041.53;;;7.70;80.69
20077;BME280;12348;42.710;23.378;2023-02-13T07:15:31;97039.34;;;8.45;74.19
20077;BME280;12348;42.710;23.378;2023-02-13T07:17:59;97046.00;;;8.24;72.84
20077;BME280;12348;42.710;23.378;2023-02-13T07:20:26;97051.59;;;7.74;70.09
20077;BME280;12348;42.710;23.378;2023-02-13T07:22:56;97051.69;;;6.74;78.07
20077;BME280;12348;42.710;23.378;2023-02-13T07:25:23;97052.31;;;6.76;77.15
20077;BME280;12348;42.710;23.378;2023-02-13T07:27:50;97050.59;;;6.82;76.56
20077;BME280;12348;42.710;23.378;2023-02-13T07:30:17;97056.13;;;6.87;76.95
20077;BME280;12348;42.710;23.378;2023-02-13T07:32:45;97052.25;;;5.68;79.11
20077;BME280;12348;42.710;23.378;2023-02-13T07:35:12;97055.44;;;4.66;85.89
20077;BME280;12348;42.710;23.378;2023-02-13T07:37:39;97055.84;;;4.69;88.91
20077;BME280;12348;42.710;23.378;2023-02-13T07:40:07;97063.84;;;4.69;90.33
20077;BME280;12348;42.710;23.378;2023-02-13T07:42:34;97058.09;;;4.92;89.21
20077;BME280;12348;42.710;23.378;2023-02-13T07:45:01;97054.19;;;5.21;90.22
20077;BME280;12348;42.710;23.378;2023-02-13T07:47:29;97042.72;;;7.12;83.76
20077;BME280;12348;42.710;23.378;2023-02-13T07:49:58;97041.47;;;9.09;74.19
20077;BME280;12348;42.710;23.378;2023-02-13T07:52:24;97043.81;;;9.64;67.03
20077;BME280;12348;42.710;23.378;2023-02-13T07:54:51;97043.25;;;8.61;70.29
20077;BME280;12348;42.710;23.378;2023-02-13T07:57:18;97042.19;;;9.16;68.74
20077;BME280;12348;42.710;23.378;2023-02-13T07:59:45;97050.22;;;8.50;70.37
20077;BME280;12348;42.710;23.378;2023-02-13T08:02:12;97056.03;;;8.78;69.30
20077;BME280;12348;42.710;23.378;2023-02-13T08:04:39;97050.59;;;7.50;73.00
20077;BME280;12348;42.710;23.378;2023-02-13T08:07:07;97051.81;;;6.86;76.92
20077;BME280;12348;42.710;23.378;2023-02-13T08:09:34;97050.13;;;5.83;81.37
20077;BME280;12348;42.710;23.378;2023-02-13T08:12:18;97049.47;;;5.10;84.81
20077;BME280;12348;42.710;23.378;2023-02-13T08:14:45;97049.91;;;4.67;87.89
20077;BME280;12348;42.710;23.378;2023-02-13T08:17:12;97051.47;;;4.22;91.37
20077;BME280;12348;42.710;23.378;2023-02-13T08:19:39;97049.59;;;4.09;94.05
20077;BME280;12348;42.710;23.378;2023-02-13T08:22:08;97055.78;;;3.68;99.40
20077;BME280;12348;42.710;23.378;2023-02-13T08:24:34;97051.25;;;3.55;100.00
20077;BME280;12348;42.710;23.378;2023-02-13T08:27:01;97060.00;;;3.91;100.00
20077;BME280;12348;42.710;23.378;2023-02-13T08:29:28;97061.19;;;3.88;100.00
20077;BME280;12348;42.710;23.378;2023-02-13T08:31:55;97059.66;;;3.24;100.00
20077;BME280;12348;42.710;23.378;2023-02-13T08:34:22;97055.88;;;3.40;100.00
20077;BME280;12348;42.710;23.378;2023-02-13T08:36:49;97049.72;;;3.87;100.00
20077;BME280;12348;42.710;23.378;2023-02-13T08:39:17;97051.66;;;4.13;100.00
20077;BME280;12348;42.710;23.378;2023-02-13T08:41:44;97057.50;;;4.64;100.00
20077;BME280;12348;42.710;23.378;2023-02-13T08:44:11;97059.09;;;4.51;100.00
20077;BME280;12348;42.710;23.378;2023-02-13T08:46:37;97050.72;;;4.61;100.00
20077;BME280;12348;42.710;23.378;2023-02-13T08:49:04;97050.31;;;4.71;98.83
20077;BME280;12348;42.710;23.378;2023-02-13T08:51:31;97043.34;;;4.76;98.76
20077;BME280;12348;42.710;23.378;2023-02-13T08:53:58;97046.81;;;4.77;98.56
20077;BME280;12348;42.710;23.378;2023-02-13T08:56:26;97048.44;;;4.58;99.17
20077;BME280;12348;42.710;23.378;2023-02-13T08:58:53;97062.59;;;4.52;100.00
20077;BME280;12348;42.710;23.378;2023-02-13T09:01:20;97053.41;;;4.68;99.28
20077;BME280;12348;42.710;23.378;2023-02-13T09:03:48;97045.59;;;4.86;95.58
20077;BME280;12348;42.710;23.378;2023-02-13T09:06:15;97046.84;;;4.97;94.67
20077;BME280;12348;42.710;23.378;2023-02-13T09:08:42;97050.53;;;4.56;95.52
20077;BME280;12348;42.710;23.378;2023-02-13T09:11:09;97042.53;;;4.76;98.94
20077;BME280;12348;42.710;23.378;2023-02-13T09:13:37;97044.72;;;5.32;94.24
20077;BME280;12348;42.710;23.378;2023-02-13T09:16:05;97039.78;;;5.42;90.56
20077;BME280;12348;42.710;23.378;2023-02-13T09:18:32;97038.91;;;5.55;88.71
20077;BME280;12348;42.710;23.378;2023-02-13T09:21:00;97042.91;;;5.13;89.72
20077;BME280;12348;42.710;23.378;2023-02-13T09:23:30;97035.13;;;5.04;91.05
20077;BME280;12348;42.710;23.378;2023-02-13T09:25:58;97034.69;;;5.21;91.18
20077;BME280;12348;42.710;23.378;2023-02-13T09:28:26;97038.31;;;5.46;89.85
20077;BME280;12348;42.710;23.378;2023-02-13T09:30:55;97032.94;;;5.59;88.74
20077;BME280;12348;42.710;23.378;2023-02-13T09:33:22;97027.25;;;5.29;88.40
20077;BME280;12348;42.710;23.378;2023-02-13T09:35:49;97023.91;;;5.54;88.43
20077;BME280;12348;42.710;23.378;2023-02-13T09:38:16;97030.38;;;5.84;90.38
20077;BME280;12348;42.710;23.378;2023-02-13T09:40:46;97023.56;;;5.95;86.44
20077;BME280;12348;42.710;23.378;2023-02-13T09:43:17;97012.50;;;6.23;84.87
20077;BME280;12348;42.710;23.378;2023-02-13T09:45:49;97013.78;;;6.21;84.53
20077;BME280;12348;42.710;23.378;2023-02-13T09:48:28;97015.94;;;5.99;86.35
20077;BME280;12348;42.710;23.378;2023-02-13T09:50:55;97012.72;;;6.22;85.94
20077;BME280;12348;42.710;23.378;2023-02-13T09:53:24;97009.28;;;6.15;86.49
20077;BME280;12348;42.710;23.378;2023-02-13T09:56:01;97009.22;;;6.53;84.44
20077;BME280;12348;42.710;23.378;2023-02-13T09:58:38;96996.28;;;6.18;84.84
20077;BME280;12348;42.710;23.378;2023-02-13T10:01:17;96994.94;;;6.34;84.72
20077;BME280;12348;42.710;23.378;2023-02-13T10:03:54;96994.00;;;6.53;83.32
20077;BME280;12348;42.710;23.378;2023-02-13T10:06:29;96993.38;;;7.93;80.05
20077;BME280;12348;42.710;23.378;2023-02-13T10:09:07;96978.81;;;8.73;74.62
20077;BME280;12348;42.710;23.378;2023-02-13T10:12:05;96988.34;;;8.45;73.86
20077;BME280;12348;42.710;23.378;2023-02-13T10:14:39;96981.22;;;8.21;75.77
20077;BME280;12348;42.710;23.378;2023-02-13T10:17:13;96975.63;;;8.11;74.54
20077;BME280;12348;42.710;23.378;2023-02-13T10:19:46;96976.91;;;7.41;76.68
20077;BME280;12348;42.710;23.378;2023-02-13T10:22:18;96969.59;;;7.48;77.32
20077;BME280;12348;42.710;23.378;2023-02-13T10:24:47;96955.75;;;7.51;77.17
20077;BME280;12348;42.710;23.378;2023-02-13T10:27:21;96958.88;;;7.67;77.30
20077;BME280;12348;42.710;23.378;2023-02-13T10:29:56;96953.00;;;9.07;73.81
20077;BME280;12348;42.710;23.378;2023-02-13T10:32:51;96948.56;;;9.25;71.61
20077;BME280;12348;42.710;23.378;2023-02-13T10:35:37;96946.72;;;9.02;71.07
20077;BME280;12348;42.710;23.378;2023-02-13T10:38:13;96934.19;;;10.00;68.36
20077;BME280;12348;42.710;23.378;2023-02-13T10:40:50;96939.72;;;10.50;65.14
20077;BME280;12348;42.710;23.378;2023-02-13T10:43:20;96929.03;;;11.11;62.48
20077;BME280;12348;42.710;23.378;2023-02-13T10:45:56;96923.38;;;10.90;61.84
20077;BME280;12348;42.710;23.378;2023-02-13T10:48:36;96917.88;;;10.85;61.56
20077;BME280;12348;42.710;23.378;2023-02-13T10:51:12;96919.28;;;11.27;60.36
20077;BME280;12348;42.710;23.378;2023-02-13T10:53:52;96917.72;;;9.96;62.47
20077;BME280;12348;42.710;23.378;2023-02-13T10:56:25;96919.75;;;10.34;63.80
20077;BME280;12348;42.710;23.378;2023-02-13T10:59:10;96913.94;;;11.10;62.16
20077;BME280;12348;42.710;23.378;2023-02-13T11:01:49;96905.38;;;11.13;61.81
20077;BME280;12348;42.710;23.378;2023-02-13T11:04:18;96898.91;;;11.58;59.79
20077;BME280;12348;42.710;23.378;2023-02-13T11:06:51;96899.81;;;11.69;58.79
20077;BME280;12348;42.710;23.378;2023-02-13T11:09:20;96889.06;;;11.47;56.42
20077;BME280;12348;42.710;23.378;2023-02-13T11:11:47;96879.44;;;11.78;56.26
20077;BME280;12348;42.710;23.378;2023-02-13T11:14:15;96884.25;;;11.98;55.29
20077;BME280;12348;42.710;23.378;2023-02-13T11:16:52;96887.38;;;12.11;54.54
20077;BME280;12348;42.710;23.378;2023-02-13T11:19:23;96874.13;;;11.17;57.31
20077;BME280;12348;42.710;23.378;2023-02-13T11:21:56;96863.88;;;11.85;55.63
20077;BME280;12348;42.710;23.378;2023-02-13T11:24:25;96863.69;;;11.70;56.04
20077;BME280;12348;42.710;23.378;2023-02-13T11:26:57;96867.34;;;11.14;56.16
20077;BME280;12348;42.710;23.378;2023-02-13T11:29:26;96859.94;;;11.98;55.86
20077;BME280;12348;42.710;23.378;2023-02-13T11:32:06;96845.16;;;11.78;55.19
20077;BME280;12348;42.710;23.378;2023-02-13T11:34:37;96835.81;;;11.86;55.43
20077;BME280;12348;42.710;23.378;2023-02-13T11:37:15;96825.66;;;12.25;54.84
20077;BME280;12348;42.710;23.378;2023-02-13T11:39:44;96823.75;;;11.94;53.08
20077;BME280;12348;42.710;23.378;2023-02-13T11:42:13;96827.50;;;11.65;54.62
20077;BME280;12348;42.710;23.378;2023-02-13T11:44:41;96824.88;;;11.76;54.12
20077;BME280;12348;42.710;23.378;2023-02-13T11:47:08;96814.16;;;12.08;52.97
20077;BME280;12348;42.710;23.378;2023-02-13T11:49:36;96806.25;;;12.01;51.36
20077;BME280;12348;42.710;23.378;2023-02-13T11:52:05;96804.69;;;11.51;52.02
20077;BME280;12348;42.710;23.378;2023-02-13T11:54:36;96790.22;;;11.35;52.19
20077;BME280;12348;42.710;23.378;2023-02-13T11:57:19;96788.91;;;11.16;53.00
20077;BME280;12348;42.710;23.378;2023-02-13T11:59:49;96790.94;;;11.53;52.82
20077;BME280;12348;42.710;23.378;2023-02-13T12:02:18;96786.91;;;11.28;51.75
20077;BME280;12348;42.710;23.378;2023-02-13T12:04:47;96785.91;;;11.12;52.21
20077;BME280;12348;42.710;23.378;2023-02-13T12:07:21;96785.03;;;11.56;49.62
20077;BME280;12348;42.710;23.378;2023-02-13T12:09:54;96779.31;;;11.25;50.18
20077;BME280;12348;42.710;23.378;2023-02-13T12:12:27;96777.44;;;11.04;51.49
20077;BME280;12348;42.710;23.378;2023-02-13T12:14:56;96777.28;;;11.37;51.29
20077;BME280;12348;42.710;23.378;2023-02-13T12:17:26;96774.06;;;11.13;50.74
20077;BME280;12348;42.710;23.378;2023-02-13T12:19:55;96773.75;;;11.32;50.22
20077;BME280;12348;42.710;23.378;2023-02-13T12:22:30;96769.03;;;10.56;52.17
20077;BME280;12348;42.710;23.378;2023-02-13T12:25:18;96773.69;;;10.61;51.89
20077;BME280;12348;42.710;23.378;2023-02-13T12:28:00;96759.88;;;10.35;52.75
20077;BME280;12348;42.710;23.378;2023-02-13T12:30:40;96764.13;;;10.31;52.43
20077;BME280;12348;42.710;23.378;2023-02-13T12:33:22;96764.91;;;10.15;53.15
20077;BME280;12348;42.710;23.378;2023-02-13T12:35:56;96761.97;;;10.00;52.52
20077;BME280;12348;42.710;23.378;2023-02-13T12:38:38;96752.34;;;10.37;51.58
20077;BME280;12348;42.710;23.378;2023-02-13T12:41:23;96756.34;;;10.74;50.56
20077;BME280;12348;42.710;23.378;2023-02-13T12:44:08;96758.66;;;10.65;48.58
20077;BME280;12348;42.710;23.378;2023-02-13T12:46:51;96748.72;;;10.49;48.03
20077;BME280;12348;42.710;23.378;2023-02-13T12:49:32;96734.56;;;10.36;49.04
20077;BME280;12348;42.710;23.378;2023-02-13T12:52:13;96735.34;;;10.54;48.04
20077;BME280;12348;42.710;23.378;2023-02-13T12:54:51;96728.81;;;10.50;48.12
20077;BME280;12348;42.710;23.378;2023-02-13T12:57:37;96731.06;;;10.36;48.87
20077;BME280;12348;42.710;23.378;2023-02-13T13:00:20;96730.16;;;10.30;48.00
20077;BME280;12348;42.710;23.378;2023-02-13T13:03:02;96726.19;;;10.16;48.76
20077;BME280;12348;42.710;23.378;2023-02-13T13:05:49;96718.56;;;9.29;49.64
20077;BME280;12348;42.710;23.378;2023-02-13T13:08:32;96715.50;;;9.70;49.51
20077;BME280;12348;42.710;23.378;2023-02-13T13:11:17;96716.16;;;9.61;50.03
20077;BME280;12348;42.710;23.378;2023-02-13T13:13:59;96715.81;;;9.40;50.73
20077;BME280;12348;42.710;23.378;2023-02-13T13:16:37;96709.16;;;9.93;50.10